MDSA weather

San Juan De La Maguana Airport
San Juan de la Maguana, San Juan Province, Dominican Republic

Public forecast

Using degrees Celsius for public forecast. Weather courtesy of forecast.io.

METAR (pilot weather report)

Report is more than 6 hours old.

Closest report is Maria Montez International Airport, 35.0 nm (64.9 km) S. Retrieved 2019/03/23 00:00 UTC (9 hours ago):

MDBH 230000Z 13012KT 9999 FEW020 SCT080 26/21 Q1015

TAF (pilot weather forecast)

Forecast is more than 12 hours old.

Closest forecast is Maria Montez International Airport, 35.0 nm (64.9 km) S. Retrieved 2019/03/22 06:21 UTC (1 day ago):

TAF MDBH 220400Z 2206/2306 00000KT 9999 FEW018 BKN080 PROB30 2206/2212 8000 -RA FEW016CB SCT018 BKN070 BECMG 2210/2212 27004KT